createdAt,value
2023-08-01T00:00:06.075Z,16.38
2023-08-01T00:01:06.159Z,16.38
2023-08-01T00:02:06.375Z,16.37
2023-08-01T00:03:06.127Z,16.40
2023-08-01T00:04:06.272Z,16.40
2023-08-01T00:05:05.997Z,16.38
2023-08-01T00:06:06.028Z,16.40
2023-08-01T00:07:05.996Z,16.38
2023-08-01T00:08:05.992Z,16.40
2023-08-01T00:09:05.922Z,16.40
2023-08-01T00:10:06.097Z,16.40
2023-08-01T00:11:05.926Z,16.37
2023-08-01T00:12:06.178Z,16.38
2023-08-01T00:13:06.093Z,16.35
2023-08-01T00:14:05.868Z,16.37
2023-08-01T00:15:05.847Z,16.37
2023-08-01T00:16:08.160Z,16.35
2023-08-01T00:17:06.094Z,16.35
2023-08-01T00:18:05.947Z,16.37
2023-08-01T00:19:06.045Z,16.37
2023-08-01T00:20:05.980Z,16.35
2023-08-01T00:21:05.817Z,16.34
2023-08-01T00:22:06.069Z,16.37
2023-08-01T00:23:05.766Z,16.35
2023-08-01T00:24:05.863Z,16.35
2023-08-01T00:25:05.772Z,16.37
2023-08-01T00:26:05.784Z,16.38
2023-08-01T00:27:05.742Z,16.37
2023-08-01T00:28:05.790Z,16.38
2023-08-01T00:29:05.718Z,16.41
2023-08-01T00:30:05.744Z,16.41
2023-08-01T00:31:05.906Z,16.41
2023-08-01T00:32:05.865Z,16.42
2023-08-01T00:33:05.683Z,16.42
2023-08-01T00:34:05.667Z,16.42
2023-08-01T00:35:05.980Z,16.41
2023-08-01T00:36:05.712Z,16.42
2023-08-01T00:37:05.658Z,16.42
2023-08-01T00:38:05.712Z,16.42
2023-08-01T00:39:05.625Z,16.41
2023-08-01T00:40:05.919Z,16.41
2023-08-01T00:41:05.678Z,16.41
2023-08-01T00:42:05.665Z,16.41
2023-08-01T00:43:05.711Z,16.41
2023-08-01T00:44:05.710Z,16.41
2023-08-01T00:45:05.573Z,16.42
2023-08-01T00:46:05.701Z,16.41
2023-08-01T00:47:05.742Z,16.42
2023-08-01T00:48:05.641Z,16.42
2023-08-01T00:49:05.692Z,16.42
2023-08-01T00:50:05.702Z,16.44
2023-08-01T00:51:05.498Z,16.44
2023-08-01T00:52:05.505Z,16.44
2023-08-01T00:53:05.509Z,16.44
2023-08-01T00:54:05.836Z,16.49
2023-08-01T00:55:05.520Z,16.49
2023-08-01T00:56:05.564Z,16.49
2023-08-01T00:57:05.489Z,16.50
2023-08-01T00:58:05.531Z,16.52
2023-08-01T00:59:05.439Z,16.50
2023-08-01T01:00:05.863Z,16.50
2023-08-01T01:01:05.474Z,16.53
2023-08-01T01:02:05.712Z,16.52
2023-08-01T01:03:05.713Z,16.52
2023-08-01T01:04:05.375Z,16.52
2023-08-01T01:05:05.466Z,16.50
2023-08-01T01:06:05.577Z,16.50
2023-08-01T01:07:05.381Z,16.50
2023-08-01T01:08:05.344Z,16.50
2023-08-01T01:09:05.425Z,16.49
2023-08-01T01:10:05.312Z,16.50
2023-08-01T01:11:05.309Z,16.49
2023-08-01T01:12:05.427Z,16.49
2023-08-01T01:13:05.481Z,16.49
2023-08-01T01:14:05.374Z,16.48
2023-08-01T01:15:05.328Z,16.48
2023-08-01T01:16:05.461Z,16.49
2023-08-01T01:17:05.346Z,16.49
2023-08-01T01:18:05.354Z,16.49
2023-08-01T01:19:05.248Z,16.48
2023-08-01T01:20:05.230Z,16.48
2023-08-01T01:21:05.507Z,16.49
2023-08-01T01:22:05.302Z,16.48
2023-08-01T01:23:05.329Z,16.49
2023-08-01T01:24:05.663Z,16.44
2023-08-01T01:25:05.173Z,16.48
2023-08-01T01:26:05.139Z,16.44
2023-08-01T01:27:05.289Z,16.48
2023-08-01T01:28:05.302Z,16.48
2023-08-01T01:29:05.132Z,16.48
2023-08-01T01:30:05.140Z,16.45
2023-08-01T01:31:05.187Z,16.44
2023-08-01T01:32:05.418Z,16.40
2023-08-01T01:33:05.464Z,16.38
2023-08-01T01:34:05.135Z,16.38
2023-08-01T01:35:05.093Z,16.34
2023-08-01T01:36:05.145Z,16.34
2023-08-01T01:37:05.087Z,16.33
2023-08-01T01:38:05.050Z,16.27
2023-08-01T01:39:05.049Z,16.22
2023-08-01T01:40:05.143Z,16.16
2023-08-01T01:41:05.046Z,16.14
2023-08-01T01:42:05.092Z,16.12
2023-08-01T01:43:05.041Z,16.09
2023-08-01T01:44:05.095Z,16.04
2023-08-01T01:45:05.000Z,16.03
2023-08-01T01:46:05.261Z,16.01
2023-08-01T01:47:05.176Z,16.03
2023-08-01T01:48:05.228Z,16.01
2023-08-01T01:49:05.520Z,16.00
2023-08-01T01:50:05.199Z,15.97
2023-08-01T01:51:05.001Z,15.94
2023-08-01T01:52:05.000Z,15.94
2023-08-01T01:53:04.908Z,15.93
2023-08-01T01:54:05.156Z,15.89
2023-08-01T01:55:04.876Z,15.89
2023-08-01T01:56:05.199Z,15.88
2023-08-01T01:57:05.034Z,15.86
2023-08-01T01:58:04.856Z,15.85
2023-08-01T01:59:05.305Z,15.84
2023-08-01T02:00:04.962Z,15.84
2023-08-01T02:01:04.907Z,15.82
2023-08-01T02:02:04.912Z,15.81
2023-08-01T02:03:05.096Z,15.79
2023-08-01T02:04:05.081Z,15.78
2023-08-01T02:05:05.031Z,15.76
2023-08-01T02:06:04.795Z,15.75
2023-08-01T02:07:04.916Z,15.74
2023-08-01T02:08:04.769Z,15.72
2023-08-01T02:09:04.787Z,15.70
2023-08-01T02:10:04.815Z,15.70
2023-08-01T02:11:04.978Z,15.70
2023-08-01T02:12:05.134Z,15.66
2023-08-01T02:13:04.820Z,15.66
2023-08-01T02:14:04.681Z,15.66
2023-08-01T02:15:04.667Z,15.68
2023-08-01T02:16:04.745Z,15.67
2023-08-01T02:17:04.688Z,15.66
2023-08-01T02:18:04.768Z,15.63
2023-08-01T02:19:04.678Z,15.64
2023-08-01T02:20:04.604Z,15.64
2023-08-01T02:21:04.586Z,15.64
2023-08-01T02:22:04.779Z,15.63
2023-08-01T02:23:04.630Z,15.60
2023-08-01T02:24:04.678Z,15.59
2023-08-01T02:25:04.734Z,15.57
2023-08-01T02:26:04.720Z,15.57
2023-08-01T02:27:04.562Z,15.59
2023-08-01T02:28:04.757Z,15.59
2023-08-01T02:29:04.537Z,15.60
2023-08-01T02:30:04.790Z,15.60
2023-08-01T02:31:04.687Z,15.61
2023-08-01T02:32:04.525Z,15.60
2023-08-01T02:33:04.646Z,15.61
2023-08-01T02:34:04.512Z,15.61
2023-08-01T02:35:04.656Z,15.63
2023-08-01T02:36:04.465Z,15.63
2023-08-01T02:37:04.460Z,15.64
2023-08-01T02:38:04.405Z,15.66
2023-08-01T02:39:04.499Z,15.66
2023-08-01T02:40:04.422Z,15.66
2023-08-01T02:41:04.577Z,15.66
2023-08-01T02:42:04.412Z,15.67
2023-08-01T02:43:04.500Z,15.70
2023-08-01T02:44:04.367Z,15.72
2023-08-01T02:45:04.384Z,15.74
2023-08-01T02:46:04.422Z,15.75
2023-08-01T02:47:04.410Z,15.75
2023-08-01T02:48:04.394Z,15.76
2023-08-01T02:49:04.373Z,15.76
2023-08-01T02:50:04.491Z,15.78
2023-08-01T02:51:04.412Z,15.79
2023-08-01T02:52:04.483Z,15.79
2023-08-01T02:53:04.281Z,15.78
2023-08-01T02:54:04.648Z,15.81
2023-08-01T02:55:04.426Z,15.84
2023-08-01T02:56:04.295Z,15.84
2023-08-01T02:57:04.500Z,15.85
2023-08-01T02:58:04.368Z,15.85
2023-08-01T02:59:04.326Z,15.88
2023-08-01T03:00:04.402Z,15.89
2023-08-01T03:01:04.280Z,15.86
2023-08-01T03:02:04.195Z,15.86
2023-08-01T03:03:04.253Z,15.86
2023-08-01T03:04:04.175Z,15.85
2023-08-01T03:05:04.169Z,15.88
2023-08-01T03:06:04.256Z,15.88
2023-08-01T03:07:04.207Z,15.88
2023-08-01T03:08:04.138Z,15.88
2023-08-01T03:09:04.103Z,15.86
2023-08-01T03:10:04.263Z,15.86
2023-08-01T03:11:04.100Z,15.88
2023-08-01T03:12:04.155Z,15.86
2023-08-01T03:13:04.157Z,15.85
2023-08-01T03:14:04.203Z,15.86
2023-08-01T03:15:04.038Z,15.85
2023-08-01T03:16:04.070Z,15.84
2023-08-01T03:17:04.328Z,15.85
2023-08-01T03:18:04.134Z,15.84
2023-08-01T03:19:04.044Z,15.85
2023-08-01T03:20:04.191Z,15.82
2023-08-01T03:21:04.155Z,15.82
2023-08-01T03:22:04.066Z,15.84
2023-08-01T03:23:04.015Z,15.84
2023-08-01T03:24:04.030Z,15.84
2023-08-01T03:25:04.207Z,15.84
2023-08-01T03:26:03.932Z,15.84
2023-08-01T03:27:04.079Z,15.82
2023-08-01T03:28:04.062Z,15.85
2023-08-01T03:29:04.015Z,15.84
2023-08-01T03:30:04.345Z,15.81
2023-08-01T03:31:03.956Z,15.82
2023-08-01T03:32:03.987Z,15.82
2023-08-01T03:33:04.010Z,15.79
2023-08-01T03:34:04.042Z,15.76
2023-08-01T03:35:03.889Z,15.75
2023-08-01T03:36:04.101Z,15.75
2023-08-01T03:37:03.845Z,15.75
2023-08-01T03:38:03.853Z,15.74
2023-08-01T03:39:03.970Z,15.74
2023-08-01T03:40:03.908Z,15.70
2023-08-01T03:41:04.052Z,15.66
2023-08-01T03:42:03.866Z,15.64
2023-08-01T03:43:03.809Z,15.61
2023-08-01T03:44:03.904Z,15.63
2023-08-01T03:45:03.941Z,15.63
2023-08-01T03:46:03.785Z,15.61
2023-08-01T03:47:03.988Z,15.63
2023-08-01T03:48:03.797Z,15.63
2023-08-01T03:49:03.739Z,15.63
2023-08-01T03:50:03.692Z,15.61
2023-08-01T03:51:03.672Z,15.59
2023-08-01T03:52:03.664Z,15.57
2023-08-01T03:53:03.691Z,15.57
2023-08-01T03:54:13.576Z,15.54
2023-08-01T03:55:03.697Z,15.56
2023-08-01T03:56:03.698Z,15.51
2023-08-01T03:57:04.067Z,15.51
2023-08-01T03:58:03.608Z,15.51
2023-08-01T03:59:03.731Z,15.51
2023-08-01T04:00:03.617Z,15.51
2023-08-01T04:01:03.976Z,15.48
2023-08-01T04:02:03.654Z,15.46
2023-08-01T04:03:03.891Z,15.46
2023-08-01T04:04:04.015Z,15.46
2023-08-01T04:05:03.627Z,15.46
2023-08-01T04:06:03.535Z,15.46
2023-08-01T04:07:03.543Z,15.45
2023-08-01T04:08:03.528Z,15.45
2023-08-01T04:09:03.492Z,15.43
2023-08-01T04:10:03.516Z,15.41
2023-08-01T04:11:03.538Z,15.38
2023-08-01T04:12:03.589Z,15.36
2023-08-01T04:13:03.493Z,15.36
2023-08-01T04:14:03.462Z,15.36
2023-08-01T04:15:03.637Z,15.35
2023-08-01T04:16:03.544Z,15.31
2023-08-01T04:17:03.457Z,15.30
2023-08-01T04:18:03.532Z,15.31
2023-08-01T04:19:03.519Z,15.31
2023-08-01T04:20:03.779Z,15.33
2023-08-01T04:21:03.487Z,15.31
2023-08-01T04:22:03.357Z,15.33
2023-08-01T04:23:03.584Z,15.33
2023-08-01T04:24:03.520Z,15.35
2023-08-01T04:25:03.384Z,15.33
2023-08-01T04:26:03.292Z,15.35
2023-08-01T04:27:03.336Z,15.35
2023-08-01T04:28:03.457Z,15.38
2023-08-01T04:29:03.374Z,15.36
2023-08-01T04:30:03.376Z,15.38
2023-08-01T04:31:03.305Z,15.39
2023-08-01T04:32:03.284Z,15.42
2023-08-01T04:33:03.340Z,15.43
2023-08-01T04:34:03.253Z,15.46
2023-08-01T04:35:03.371Z,15.46
2023-08-01T04:36:03.558Z,15.48
2023-08-01T04:37:03.301Z,15.48
2023-08-01T04:38:03.365Z,15.45
2023-08-01T04:39:03.246Z,15.45
2023-08-01T04:40:03.278Z,15.45
2023-08-01T04:41:03.319Z,15.43
2023-08-01T04:42:03.233Z,15.41
2023-08-01T04:43:03.296Z,15.38
2023-08-01T04:44:03.357Z,15.36
2023-08-01T04:45:03.154Z,15.36
2023-08-01T04:46:03.231Z,15.36
2023-08-01T04:47:03.333Z,15.36
2023-08-01T04:48:03.115Z,15.35
2023-08-01T04:49:03.279Z,15.36
2023-08-01T04:50:03.153Z,15.38
2023-08-01T04:51:03.095Z,15.38
2023-08-01T04:52:03.454Z,15.41
2023-08-01T04:53:03.065Z,15.41
2023-08-01T04:54:03.093Z,15.38
2023-08-01T04:55:03.047Z,15.39
2023-08-01T04:56:03.050Z,15.38
2023-08-01T04:57:03.265Z,15.39
2023-08-01T04:58:03.046Z,15.38
2023-08-01T04:59:03.337Z,15.35
2023-08-01T05:00:03.027Z,15.35
2023-08-01T05:01:03.257Z,15.35
2023-08-01T05:02:03.314Z,15.36
2023-08-01T05:03:03.054Z,15.35
2023-08-01T05:04:02.959Z,15.36
2023-08-01T05:05:03.009Z,15.35
2023-08-01T05:06:03.036Z,15.35
2023-08-01T05:07:02.948Z,15.35
2023-08-01T05:08:02.892Z,15.35
2023-08-01T05:09:03.233Z,15.35
2023-08-01T05:10:02.864Z,15.36
2023-08-01T05:11:02.851Z,15.38
2023-08-01T05:12:03.101Z,15.38
2023-08-01T05:13:02.889Z,15.38
2023-08-01T05:14:02.832Z,15.36
2023-08-01T05:15:02.990Z,15.35
2023-08-01T05:16:02.790Z,15.39
2023-08-01T05:17:02.984Z,15.38
2023-08-01T05:18:02.985Z,15.39
2023-08-01T05:19:02.832Z,15.39
2023-08-01T05:20:02.752Z,15.38
2023-08-01T05:21:02.826Z,15.41
2023-08-01T05:22:02.920Z,15.42
2023-08-01T05:23:02.866Z,15.43
2023-08-01T05:24:02.932Z,15.45
2023-08-01T05:25:02.925Z,15.45
2023-08-01T05:26:02.693Z,15.48
2023-08-01T05:27:03.153Z,15.48
2023-08-01T05:28:02.865Z,15.54
2023-08-01T05:29:02.698Z,15.56
2023-08-01T05:30:02.848Z,15.54
2023-08-01T05:31:02.661Z,15.52
2023-08-01T05:32:02.871Z,15.52
2023-08-01T05:33:02.640Z,15.51
2023-08-01T05:34:02.644Z,15.49
2023-08-01T05:35:02.619Z,15.49
2023-08-01T05:36:02.656Z,15.46
2023-08-01T05:37:02.619Z,15.46
2023-08-01T05:38:02.631Z,15.45
2023-08-01T05:39:02.584Z,15.45
2023-08-01T05:40:02.570Z,15.48
2023-08-01T05:41:02.636Z,15.54
2023-08-01T05:42:02.571Z,15.54
2023-08-01T05:43:02.565Z,15.59
2023-08-01T05:44:02.572Z,15.60
2023-08-01T05:45:02.556Z,15.61
2023-08-01T05:46:02.543Z,15.66
2023-08-01T05:47:02.833Z,15.66
2023-08-01T05:48:02.789Z,15.66
2023-08-01T05:49:02.915Z,15.66
2023-08-01T05:50:02.456Z,15.67
2023-08-01T05:51:02.477Z,15.68
2023-08-01T05:52:02.504Z,15.70
2023-08-01T05:53:02.445Z,15.72
2023-08-01T05:54:02.572Z,15.70
2023-08-01T05:55:02.822Z,15.67
2023-08-01T05:56:02.483Z,15.64
2023-08-01T05:57:02.515Z,15.63
2023-08-01T05:58:02.524Z,15.63
2023-08-01T05:59:02.585Z,15.66
2023-08-01T06:00:02.471Z,15.67
2023-08-01T06:01:02.357Z,15.68
2023-08-01T06:02:02.755Z,15.70
2023-08-01T06:03:02.424Z,15.72
2023-08-01T06:04:02.762Z,15.70
2023-08-01T06:05:02.393Z,15.68
2023-08-01T06:06:02.364Z,15.67
2023-08-01T06:07:02.291Z,15.64
2023-08-01T06:08:02.481Z,15.64
2023-08-01T06:09:02.414Z,15.66
2023-08-01T06:10:02.396Z,15.70
2023-08-01T06:11:02.404Z,15.70
2023-08-01T06:12:02.398Z,15.68
2023-08-01T06:13:02.540Z,15.72
2023-08-01T06:14:02.367Z,15.75
2023-08-01T06:15:02.224Z,15.79
2023-08-01T06:16:02.281Z,15.81
2023-08-01T06:17:02.381Z,15.84
2023-08-01T06:18:02.421Z,15.85
2023-08-01T06:19:02.602Z,15.86
2023-08-01T06:20:02.189Z,15.88
2023-08-01T06:21:02.240Z,15.93
2023-08-01T06:22:02.177Z,15.94
2023-08-01T06:23:02.358Z,15.97
2023-08-01T06:24:02.353Z,16.01
2023-08-01T06:25:02.119Z,15.99
2023-08-01T06:26:02.111Z,15.96
2023-08-01T06:27:02.096Z,15.92
2023-08-01T06:28:02.172Z,15.89
2023-08-01T06:29:02.087Z,15.92
2023-08-01T06:30:02.452Z,15.89
2023-08-01T06:31:02.081Z,15.85
2023-08-01T06:32:02.205Z,15.84
2023-08-01T06:33:02.065Z,15.82
2023-08-01T06:34:02.069Z,15.81
2023-08-01T06:35:02.030Z,15.81
2023-08-01T06:36:02.267Z,15.78
2023-08-01T06:37:01.993Z,15.74
2023-08-01T06:38:02.033Z,15.70
2023-08-01T06:39:01.980Z,15.72
2023-08-01T06:40:02.163Z,15.75
2023-08-01T06:41:01.971Z,15.81
2023-08-01T06:42:01.961Z,15.89
2023-08-01T06:43:02.056Z,16.03
2023-08-01T06:44:01.935Z,16.14
2023-08-01T06:45:02.094Z,16.14
2023-08-01T06:46:01.931Z,16.18
2023-08-01T06:47:01.866Z,16.22
2023-08-01T06:48:01.959Z,16.16
2023-08-01T06:49:01.864Z,16.12
2023-08-01T06:50:02.266Z,16.06
2023-08-01T06:51:01.862Z,16.04
2023-08-01T06:52:01.853Z,16.06
2023-08-01T06:53:01.850Z,16.07
2023-08-01T06:54:02.120Z,16.11
2023-08-01T06:55:02.087Z,16.09
2023-08-01T06:56:01.896Z,16.09
2023-08-01T06:57:01.845Z,16.07
2023-08-01T06:58:01.812Z,16.07
2023-08-01T06:59:01.832Z,16.01
2023-08-01T07:00:01.820Z,15.99
2023-08-01T07:01:01.853Z,16.00
2023-08-01T07:02:01.838Z,16.06
2023-08-01T07:03:01.768Z,16.09
2023-08-01T07:04:01.757Z,16.16
2023-08-01T07:05:01.745Z,16.25
2023-08-01T07:06:01.849Z,16.30
2023-08-01T07:07:01.827Z,16.41
2023-08-01T07:08:01.897Z,16.50
2023-08-01T07:09:01.647Z,16.55
2023-08-01T07:10:01.645Z,16.68
2023-08-01T07:11:01.773Z,16.67
2023-08-01T07:12:01.671Z,16.63
2023-08-01T07:13:01.678Z,16.58
2023-08-01T07:14:02.180Z,16.52
2023-08-01T07:15:02.753Z,16.49
2023-08-01T07:16:01.831Z,16.50
2023-08-01T07:17:01.642Z,16.44
2023-08-01T07:18:01.837Z,16.37
2023-08-01T07:19:02.120Z,16.38
2023-08-01T07:20:01.574Z,16.38
2023-08-01T07:21:01.596Z,16.42
2023-08-01T07:22:01.771Z,16.50
2023-08-01T07:23:01.740Z,16.53
2023-08-01T07:24:01.813Z,16.52
2023-08-01T07:25:01.644Z,16.52
2023-08-01T07:26:01.508Z,16.50
2023-08-01T07:27:01.576Z,16.58
2023-08-01T07:28:01.928Z,16.60
2023-08-01T07:29:01.573Z,16.55
2023-08-01T07:30:01.633Z,16.53
2023-08-01T07:31:01.616Z,16.56
2023-08-01T07:32:01.579Z,16.65
2023-08-01T07:33:01.445Z,16.73
2023-08-01T07:34:01.431Z,16.73
2023-08-01T07:35:01.547Z,16.75
2023-08-01T07:36:01.486Z,16.78
2023-08-01T07:37:01.536Z,16.80
2023-08-01T07:38:01.734Z,16.74
2023-08-01T07:39:01.588Z,16.67
2023-08-01T07:40:01.390Z,16.65
2023-08-01T07:41:01.364Z,16.70
2023-08-01T07:42:01.435Z,16.71
2023-08-01T07:43:01.701Z,16.80
2023-08-01T07:44:01.417Z,16.85
2023-08-01T07:45:01.578Z,16.89
2023-08-01T07:46:01.379Z,16.99
2023-08-01T07:47:01.350Z,17.15
2023-08-01T07:48:01.445Z,17.30
2023-08-01T07:49:01.431Z,17.22
2023-08-01T07:50:01.463Z,17.04
2023-08-01T07:51:01.725Z,16.95
2023-08-01T07:52:01.351Z,16.85
2023-08-01T07:53:01.218Z,16.83
2023-08-01T07:54:01.338Z,16.90
2023-08-01T07:55:01.355Z,16.96
2023-08-01T07:56:01.192Z,16.93
2023-08-01T07:57:01.362Z,16.92
2023-08-01T07:58:01.162Z,16.90
2023-08-01T07:59:01.162Z,16.88
2023-08-01T08:00:01.169Z,16.75
2023-08-01T08:01:01.164Z,16.71
2023-08-01T08:02:01.167Z,16.75
2023-08-01T08:03:01.171Z,16.92
2023-08-01T08:04:03.549Z,17.18
2023-08-01T08:05:01.323Z,17.36
2023-08-01T08:06:01.164Z,17.26
2023-08-01T08:07:01.198Z,17.23
2023-08-01T08:08:01.043Z,17.22
2023-08-01T08:09:01.051Z,17.20
2023-08-01T08:10:01.073Z,17.20
2023-08-01T08:11:01.151Z,17.22
2023-08-01T08:12:01.316Z,17.20
2023-08-01T08:13:01.028Z,17.26
2023-08-01T08:14:01.061Z,17.32
2023-08-01T08:15:00.991Z,17.32
2023-08-01T08:16:01.131Z,17.33
2023-08-01T08:17:01.022Z,17.25
2023-08-01T08:18:01.028Z,17.13
2023-08-01T08:19:01.006Z,17.06
2023-08-01T08:20:00.956Z,17.03
2023-08-01T08:21:00.920Z,16.96
2023-08-01T08:22:00.990Z,16.93
2023-08-01T08:23:01.038Z,16.83
2023-08-01T08:24:00.965Z,16.80
2023-08-01T08:25:00.917Z,16.80
2023-08-01T08:26:00.888Z,16.78
2023-08-01T08:27:00.851Z,16.70
2023-08-01T08:28:00.877Z,16.65
2023-08-01T08:29:00.898Z,16.71
2023-08-01T08:30:00.868Z,16.70
2023-08-01T08:31:00.931Z,16.71
2023-08-01T08:32:00.830Z,16.62
2023-08-01T08:33:01.452Z,16.63
2023-08-01T08:34:01.003Z,16.68
2023-08-01T08:35:00.819Z,16.74
2023-08-01T08:36:01.042Z,16.80
2023-08-01T08:37:00.930Z,16.83
2023-08-01T08:38:00.889Z,16.88
2023-08-01T08:39:00.896Z,16.90
2023-08-01T08:40:00.801Z,16.93
2023-08-01T08:41:00.816Z,16.86
2023-08-01T08:42:00.954Z,16.83
2023-08-01T08:43:00.737Z,16.81
2023-08-01T08:44:00.706Z,16.74
2023-08-01T08:45:00.700Z,16.71
2023-08-01T08:46:00.738Z,16.63
2023-08-01T08:47:00.892Z,16.60
2023-08-01T08:48:00.749Z,16.73
2023-08-01T08:49:00.658Z,16.83
2023-08-01T08:50:00.850Z,16.98
2023-08-01T08:51:00.681Z,17.08
2023-08-01T08:52:00.640Z,17.15
2023-08-01T08:53:00.622Z,17.47
2023-08-01T08:54:02.666Z,17.79
2023-08-01T08:55:00.881Z,17.95
2023-08-01T08:56:00.723Z,18.10
2023-08-01T08:57:00.796Z,18.29
2023-08-01T08:58:00.692Z,18.39
2023-08-01T08:59:00.566Z,18.59
2023-08-01T09:00:00.561Z,18.84
2023-08-01T09:01:00.581Z,19.01
2023-08-01T09:02:00.526Z,19.24
2023-08-01T09:03:00.565Z,19.31
2023-08-01T09:04:00.736Z,19.48
2023-08-01T09:05:00.776Z,19.61
2023-08-01T09:06:00.758Z,19.68
2023-08-01T09:07:00.471Z,19.66
2023-08-01T09:08:00.762Z,19.79
2023-08-01T09:09:00.477Z,19.73
2023-08-01T09:10:00.490Z,19.87
2023-08-01T09:11:00.443Z,20.02
2023-08-01T09:12:00.576Z,20.33
2023-08-01T09:13:00.450Z,20.46
2023-08-01T09:14:00.600Z,20.31
2023-08-01T09:15:00.775Z,20.43
2023-08-01T09:16:00.410Z,20.58
2023-08-01T09:17:00.394Z,20.31
2023-08-01T09:18:00.464Z,20.56
2023-08-01T09:19:00.467Z,20.51
2023-08-01T09:20:00.450Z,20.43
2023-08-01T09:21:00.331Z,20.34
2023-08-01T09:22:00.466Z,20.41
2023-08-01T09:23:00.528Z,20.33
2023-08-01T09:24:00.318Z,20.43
2023-08-01T09:25:00.403Z,20.79
2023-08-01T09:26:00.738Z,20.83
2023-08-01T09:27:00.476Z,20.72
2023-08-01T09:28:00.532Z,20.66
2023-08-01T09:29:00.290Z,20.42
2023-08-01T09:30:00.289Z,20.10
2023-08-01T09:31:00.271Z,19.97
2023-08-01T09:32:00.254Z,19.84
2023-08-01T09:33:00.303Z,19.68
2023-08-01T09:34:00.570Z,19.69
2023-08-01T09:35:00.443Z,19.80
2023-08-01T09:36:00.283Z,19.69
2023-08-01T09:37:00.189Z,19.63
2023-08-01T09:38:00.189Z,19.65
2023-08-01T09:39:00.363Z,19.55
2023-08-01T09:40:00.166Z,19.43
2023-08-01T09:41:00.172Z,19.24
2023-08-01T09:42:00.212Z,19.33
2023-08-01T09:43:00.161Z,19.43
2023-08-01T09:44:00.133Z,19.66
2023-08-01T09:45:00.144Z,19.69
2023-08-01T09:46:00.307Z,19.78
2023-08-01T09:47:00.108Z,19.83
2023-08-01T09:48:00.458Z,19.86
2023-08-01T09:49:00.280Z,19.83
2023-08-01T09:50:00.192Z,19.73
2023-08-01T09:51:00.183Z,19.75
2023-08-01T09:52:00.267Z,19.76
2023-08-01T09:53:01.391Z,19.72
2023-08-01T09:54:00.061Z,19.72
2023-08-01T09:54:59.992Z,19.78
2023-08-01T09:56:00.149Z,19.79
2023-08-01T09:57:00.083Z,19.83
2023-08-01T09:58:00.183Z,19.76
2023-08-01T09:59:00.098Z,19.66
2023-08-01T09:59:59.980Z,19.57
2023-08-01T10:00:59.934Z,19.50
2023-08-01T10:01:59.988Z,19.33
2023-08-01T10:03:00.033Z,19.21
2023-08-01T10:03:59.978Z,19.10
2023-08-01T10:04:59.896Z,18.98
2023-08-01T10:06:00.189Z,18.92
2023-08-01T10:06:59.861Z,18.84
2023-08-01T10:07:59.871Z,18.77
2023-08-01T10:09:00.079Z,18.79
2023-08-01T10:09:59.859Z,18.84
2023-08-01T10:11:00.016Z,18.94
2023-08-01T10:11:59.862Z,19.57
2023-08-01T10:12:59.810Z,19.94
2023-08-01T10:13:59.788Z,19.86
2023-08-01T10:14:59.815Z,19.66
2023-08-01T10:15:59.987Z,19.54
2023-08-01T10:16:59.820Z,19.36
2023-08-01T10:17:59.818Z,19.39
2023-08-01T10:18:59.760Z,19.31
2023-08-01T10:19:59.843Z,19.38
2023-08-01T10:21:00.048Z,19.35
2023-08-01T10:21:59.770Z,19.28
2023-08-01T10:22:59.753Z,19.33
2023-08-01T10:23:59.765Z,19.61
2023-08-01T10:24:59.757Z,20.00
2023-08-01T10:25:59.820Z,20.61
2023-08-01T10:26:59.674Z,20.58
2023-08-01T10:27:59.786Z,20.34
2023-08-01T10:28:59.681Z,20.16
2023-08-01T10:30:00.053Z,19.90
2023-08-01T10:30:59.649Z,19.69
2023-08-01T10:31:59.697Z,19.60
2023-08-01T10:32:59.750Z,20.08
2023-08-01T10:33:59.594Z,20.53
2023-08-01T10:34:59.684Z,20.59
2023-08-01T10:35:59.676Z,20.72
2023-08-01T10:36:59.631Z,20.83
2023-08-01T10:37:59.579Z,20.84
2023-08-01T10:38:59.677Z,20.58
2023-08-01T10:39:59.713Z,20.27
2023-08-01T10:40:59.549Z,20.08
2023-08-01T10:41:59.576Z,19.86
2023-08-01T10:42:59.631Z,19.75
2023-08-01T10:43:59.580Z,19.60
2023-08-01T10:44:59.710Z,19.51
2023-08-01T10:45:59.535Z,19.32
2023-08-01T10:46:59.655Z,19.17
2023-08-01T10:47:59.668Z,19.02
2023-08-01T10:48:59.478Z,18.90
2023-08-01T10:49:59.793Z,18.76
2023-08-01T10:50:59.665Z,18.64
2023-08-01T10:51:59.580Z,18.55
2023-08-01T10:53:59.547Z,18.33
2023-08-01T10:54:59.403Z,18.28
2023-08-01T10:55:59.495Z,18.22
2023-08-01T10:56:59.548Z,18.13
2023-08-01T10:57:59.386Z,18.04
2023-08-01T10:58:59.501Z,18.09
2023-08-01T10:59:59.443Z,18.03
2023-08-01T11:00:59.488Z,17.92
2023-08-01T11:01:59.296Z,17.89
2023-08-01T11:02:59.470Z,17.81
2023-08-01T11:03:59.562Z,17.69
2023-08-01T11:04:59.421Z,17.69
2023-08-01T11:05:59.332Z,17.69
2023-08-01T11:06:59.454Z,17.62
2023-08-01T11:07:59.269Z,17.55
2023-08-01T11:08:59.848Z,17.50
2023-08-01T11:09:59.415Z,17.47
2023-08-01T11:10:59.385Z,17.44
2023-08-01T11:11:59.496Z,17.40
2023-08-01T11:12:59.217Z,17.32
2023-08-01T11:13:59.410Z,17.30
2023-08-01T11:14:59.406Z,17.29
2023-08-01T11:15:59.286Z,17.30
2023-08-01T11:17:00.395Z,17.36
2023-08-01T11:17:59.246Z,17.44
2023-08-01T11:18:59.518Z,17.50
2023-08-01T11:19:59.234Z,17.51
2023-08-01T11:20:59.201Z,17.54
2023-08-01T11:21:59.210Z,17.54
2023-08-01T11:22:59.229Z,17.53
2023-08-01T11:23:59.294Z,17.57
2023-08-01T11:24:59.254Z,17.64
2023-08-01T11:25:59.271Z,17.67
2023-08-01T11:26:59.497Z,17.76
2023-08-01T11:27:59.284Z,18.28
2023-08-01T11:28:59.672Z,19.02
2023-08-01T11:29:59.240Z,19.32
2023-08-01T11:30:59.292Z,19.35
2023-08-01T11:31:59.353Z,19.35
2023-08-01T11:32:59.229Z,19.39
2023-08-01T11:33:59.288Z,19.66
2023-08-01T11:34:59.405Z,20.42
2023-08-01T11:35:59.061Z,20.30
2023-08-01T11:36:59.085Z,20.05
2023-08-01T11:37:59.009Z,19.93
2023-08-01T11:38:59.095Z,19.70
2023-08-01T11:39:59.079Z,19.48
2023-08-01T11:40:59.109Z,19.23
2023-08-01T11:41:59.022Z,19.02
2023-08-01T11:42:58.918Z,18.84
2023-08-01T11:43:59.167Z,18.68
2023-08-01T11:44:59.046Z,18.46
2023-08-01T11:45:59.163Z,18.31
2023-08-01T11:46:58.892Z,18.21
2023-08-01T11:47:59.146Z,18.18
2023-08-01T11:48:58.834Z,18.24
2023-08-01T11:49:58.879Z,18.46
2023-08-01T11:50:58.992Z,18.87
2023-08-01T11:51:58.808Z,19.51
2023-08-01T11:52:58.805Z,20.35
2023-08-01T11:53:58.931Z,20.71
2023-08-01T11:54:58.870Z,20.74
2023-08-01T11:55:59.215Z,20.56
2023-08-01T11:56:59.037Z,20.50
2023-08-01T11:57:58.929Z,20.46
2023-08-01T11:58:58.937Z,20.20
2023-08-01T11:59:59.004Z,20.08
2023-08-01T12:00:58.795Z,19.98
2023-08-01T12:01:58.801Z,19.75
2023-08-01T12:02:58.796Z,19.66
2023-08-01T12:03:58.730Z,19.68
2023-08-01T12:04:58.699Z,19.68
2023-08-01T12:05:58.748Z,19.69
2023-08-01T12:06:58.710Z,19.66
2023-08-01T12:07:58.665Z,19.61
2023-08-01T12:08:58.847Z,19.54
2023-08-01T12:09:58.811Z,19.36
2023-08-01T12:10:58.655Z,19.18
2023-08-01T12:11:58.813Z,19.11
2023-08-01T12:12:58.961Z,19.05
2023-08-01T12:13:58.864Z,18.99
2023-08-01T12:14:58.588Z,18.90
2023-08-01T12:15:58.824Z,18.84
2023-08-01T12:16:58.925Z,18.79
2023-08-01T12:17:58.867Z,18.73
2023-08-01T12:19:00.738Z,18.62
2023-08-01T12:19:58.636Z,18.62
2023-08-01T12:20:58.806Z,18.58
2023-08-01T12:21:58.958Z,18.58
2023-08-01T12:22:58.845Z,18.62
2023-08-01T12:23:58.647Z,18.70
2023-08-01T12:24:58.695Z,18.79
2023-08-01T12:25:58.480Z,18.86
2023-08-01T12:26:58.614Z,18.92
2023-08-01T12:27:58.577Z,18.94
2023-08-01T12:28:58.678Z,18.98
2023-08-01T12:29:58.786Z,18.94
2023-08-01T12:30:58.762Z,18.95
2023-08-01T12:31:58.584Z,18.91
2023-08-01T12:32:58.538Z,18.92
2023-08-01T12:33:58.508Z,18.92
2023-08-01T12:34:58.378Z,18.90
2023-08-01T12:35:58.439Z,18.84
2023-08-01T12:36:58.435Z,18.83
2023-08-01T12:37:58.359Z,18.79
2023-08-01T12:38:58.324Z,18.76
2023-08-01T12:39:58.328Z,18.72
2023-08-01T12:40:58.514Z,18.65
2023-08-01T12:41:58.350Z,18.59
2023-08-01T12:42:59.043Z,18.55
2023-08-01T12:43:58.518Z,18.55
2023-08-01T12:44:58.263Z,18.50
2023-08-01T12:45:58.268Z,18.50
2023-08-01T12:46:58.312Z,18.52
2023-08-01T12:47:58.425Z,18.61
2023-08-01T12:48:58.229Z,18.70
2023-08-01T12:49:58.239Z,18.79
2023-08-01T12:50:58.270Z,18.87
2023-08-01T12:51:58.438Z,18.99
2023-08-01T12:52:58.686Z,19.17